createdAt,value
2023-03-23T15:59:41.643Z,2.20
2023-03-23T16:02:46.400Z,1.88
2023-03-23T16:05:48.666Z,1.60
2023-03-23T16:08:54.265Z,1.98
2023-03-23T16:11:57.431Z,1.90
2023-03-23T16:14:59.692Z,1.90
2023-03-23T16:18:02.017Z,1.63
2023-03-23T16:21:04.640Z,2.17
2023-03-23T16:24:08.211Z,2.00
2023-03-23T16:27:11.210Z,2.10
2023-03-23T16:30:17.141Z,1.80
2023-03-23T16:33:19.440Z,2.10
2023-03-23T16:36:21.650Z,1.70
2023-03-23T16:39:23.998Z,1.65
2023-03-23T16:42:26.162Z,1.50
2023-03-23T16:45:28.437Z,1.80
2023-03-23T16:48:30.836Z,1.52
2023-03-23T16:51:33.130Z,1.90
2023-03-23T16:54:35.247Z,2.20
2023-03-23T16:57:38.305Z,1.67
2023-03-23T17:00:41.397Z,1.80
2023-03-23T17:03:44.098Z,2.00
2023-03-23T17:06:46.744Z,1.60
2023-03-23T17:09:49.159Z,1.77
2023-03-23T17:12:51.399Z,1.80
2023-03-23T17:15:56.547Z,1.73
2023-03-23T17:18:58.926Z,2.10
2023-03-23T17:22:01.179Z,1.67
2023-03-23T17:25:03.779Z,2.00
2023-03-23T17:28:06.967Z,1.80
2023-03-23T17:31:09.558Z,2.17
2023-03-23T17:34:11.757Z,2.10
2023-03-23T17:37:13.926Z,1.90
2023-03-23T17:40:16.438Z,2.15
2023-03-23T17:43:18.629Z,1.95
2023-03-23T17:46:21.112Z,2.42
2023-03-23T17:49:24.090Z,2.28
2023-03-23T17:52:26.355Z,2.15
2023-03-23T17:55:28.624Z,1.88
2023-03-23T17:58:31.115Z,2.40
2023-03-23T18:01:33.578Z,2.65
2023-03-23T18:04:35.947Z,2.42
2023-03-23T18:07:38.209Z,2.67
2023-03-23T18:10:41.355Z,2.67
2023-03-23T18:13:43.582Z,3.47
2023-03-23T18:16:46.101Z,2.90
2023-03-23T18:19:48.352Z,3.60
2023-03-23T18:22:50.629Z,4.20
2023-03-23T18:25:56.316Z,2.95
2023-03-23T18:28:58.521Z,3.20
2023-03-23T18:32:00.752Z,3.85
2023-03-23T18:35:04.255Z,3.60
2023-03-23T18:38:06.750Z,4.20
2023-03-23T18:41:09.918Z,3.55
2023-03-23T18:44:12.123Z,4.20
2023-03-23T18:47:14.377Z,3.63
2023-03-23T18:50:16.592Z,3.63
2023-03-23T18:53:20.004Z,4.65
2023-03-23T18:56:23.057Z,4.15
2023-03-23T18:59:25.926Z,4.50
2023-03-23T19:02:28.289Z,4.15
2023-03-23T19:05:30.911Z,4.13
2023-03-23T19:08:34.826Z,4.53
2023-03-23T19:11:37.100Z,4.82
2023-03-23T19:14:42.652Z,3.97
2023-03-23T19:17:45.456Z,4.68
2023-03-23T19:21:12.501Z,4.85
2023-03-23T19:24:12.899Z,4.90
2023-03-23T19:27:15.541Z,4.63
2023-03-23T19:30:18.820Z,5.27
2023-03-23T19:33:21.346Z,4.95
2023-03-23T19:36:24.425Z,4.75
2023-03-23T19:39:26.757Z,5.37
2023-03-23T19:42:28.966Z,5.70
2023-03-23T19:45:31.898Z,5.20
2023-03-23T19:51:36.606Z,5.40
2023-03-23T19:54:39.919Z,5.80
2023-03-23T19:57:43.487Z,6.05
2023-03-23T20:00:46.123Z,5.73
2023-03-23T20:03:48.441Z,5.20
2023-03-23T20:06:51.471Z,5.60
2023-03-23T20:09:53.792Z,5.63
2023-03-23T20:12:56.026Z,6.05
2023-03-23T20:16:00.701Z,6.00
2023-03-23T20:19:05.037Z,6.43
2023-03-23T20:22:08.015Z,6.10
2023-03-23T20:25:10.401Z,5.40
2023-03-23T20:28:12.663Z,5.63
2023-03-23T20:31:24.315Z,6.33
2023-03-23T20:34:31.180Z,5.95
2023-03-23T20:37:34.484Z,5.90
2023-03-23T20:40:36.778Z,6.33
2023-03-23T20:43:40.282Z,5.78
2023-03-23T20:46:43.891Z,6.05
2023-03-23T20:49:53.206Z,6.28
2023-03-23T20:52:56.810Z,5.97
2023-03-23T20:56:02.012Z,6.40
2023-03-23T20:59:05.634Z,7.00
2023-03-23T21:02:10.499Z,6.73
2023-03-23T21:05:12.685Z,7.32
2023-03-23T21:08:14.980Z,7.00
2023-03-23T21:11:19.456Z,6.97
2023-03-23T21:14:21.739Z,6.57
2023-03-23T21:17:23.929Z,6.00
2023-03-23T21:20:27.082Z,7.18
2023-03-23T21:23:29.732Z,6.70
2023-03-23T21:26:32.235Z,7.05
2023-03-23T21:29:34.426Z,7.50
2023-03-23T21:32:36.678Z,6.30
2023-03-23T21:35:39.887Z,7.60
2023-03-23T21:38:42.192Z,8.05
2023-03-23T21:41:45.050Z,7.40
2023-03-23T21:44:48.647Z,7.18
2023-03-23T21:47:57.789Z,7.47
2023-03-23T21:51:08.549Z,7.38
2023-03-23T21:54:11.717Z,7.50
2023-03-23T21:57:14.331Z,6.88
2023-03-23T22:00:18.882Z,7.22
2023-03-23T22:03:23.608Z,7.70
2023-03-23T22:06:28.524Z,7.13
2023-03-23T22:09:31.153Z,6.57
2023-03-23T22:12:33.495Z,7.27
2023-03-23T22:15:36.250Z,6.20
2023-03-23T22:18:38.998Z,7.20
2023-03-23T22:21:41.902Z,6.88
2023-03-23T22:24:44.228Z,7.20
2023-03-23T22:27:49.708Z,7.88
2023-03-23T22:30:53.896Z,7.57
2023-03-23T22:33:57.411Z,7.10
2023-03-23T22:36:59.749Z,7.30
2023-03-23T22:40:02.125Z,7.20
2023-03-23T22:43:04.411Z,7.47
2023-03-23T22:46:07.271Z,7.93
2023-03-23T22:49:09.866Z,7.63
2023-03-23T22:52:12.315Z,7.95
2023-03-23T22:55:14.556Z,8.48
2023-03-23T22:58:17.304Z,7.97
2023-03-23T23:01:21.558Z,8.00
2023-03-23T23:04:24.289Z,7.83
2023-03-23T23:07:26.531Z,8.23
2023-03-23T23:10:28.900Z,7.65
2023-03-23T23:13:33.098Z,7.53
2023-03-23T23:16:35.747Z,7.40
2023-03-23T23:19:38.097Z,7.93
2023-03-23T23:22:41.003Z,7.75
2023-03-23T23:25:44.513Z,7.70
2023-03-23T23:28:48.259Z,8.35
2023-03-23T23:31:50.384Z,8.15
2023-03-23T23:34:52.787Z,9.03
2023-03-23T23:37:55.330Z,8.65
2023-03-23T23:40:57.510Z,8.80
2023-03-23T23:44:00.194Z,8.73
2023-03-23T23:47:02.625Z,7.78
2023-03-23T23:50:07.281Z,8.13
2023-03-23T23:53:10.942Z,8.98
2023-03-23T23:56:13.899Z,8.95
2023-03-23T23:59:16.480Z,9.00
